sensor_id;sensor_type;location;lat;lon;timestamp;P1;durP1;ratioP1;P2;durP2;ratioP2
10517;SDS011;5307;42.548;22.968;2024-02-28T00:00:44;23.38;;;11.35;;
10517;SDS011;5307;42.548;22.968;2024-02-28T00:03:11;30.00;;;12.52;;
10517;SDS011;5307;42.548;22.968;2024-02-28T00:05:38;25.50;;;11.80;;
10517;SDS011;5307;42.548;22.968;2024-02-28T00:08:05;24.25;;;12.77;;
10517;SDS011;5307;42.548;22.968;2024-02-28T00:10:32;20.70;;;11.40;;
10517;SDS011;5307;42.548;22.968;2024-02-28T00:12:58;25.58;;;12.02;;
10517;SDS011;5307;42.548;22.968;2024-02-28T00:15:25;21.85;;;11.48;;
10517;SDS011;5307;42.548;22.968;2024-02-28T00:17:54;21.08;;;10.93;;
10517;SDS011;5307;42.548;22.968;2024-02-28T00:20:20;22.85;;;10.20;;
10517;SDS011;5307;42.548;22.968;2024-02-28T00:22:46;15.63;;;9.90;;
10517;SDS011;5307;42.548;22.968;2024-02-28T00:25:13;22.05;;;10.45;;
10517;SDS011;5307;42.548;22.968;2024-02-28T00:27:41;24.17;;;11.30;;
10517;SDS011;5307;42.548;22.968;2024-02-28T00:30:08;23.23;;;11.07;;
10517;SDS011;5307;42.548;22.968;2024-02-28T00:32:35;21.77;;;10.13;;
10517;SDS011;5307;42.548;22.968;2024-02-28T00:35:04;20.52;;;10.90;;
10517;SDS011;5307;42.548;22.968;2024-02-28T00:37:31;20.58;;;10.43;;
10517;SDS011;5307;42.548;22.968;2024-02-28T00:39:57;22.85;;;11.95;;
10517;SDS011;5307;42.548;22.968;2024-02-28T00:42:24;20.23;;;10.43;;
10517;SDS011;5307;42.548;22.968;2024-02-28T00:44:52;28.27;;;13.38;;
10517;SDS011;5307;42.548;22.968;2024-02-28T00:47:19;23.30;;;11.95;;
10517;SDS011;5307;42.548;22.968;2024-02-28T00:49:45;23.38;;;10.23;;
10517;SDS011;5307;42.548;22.968;2024-02-28T00:52:13;18.50;;;9.55;;
10517;SDS011;5307;42.548;22.968;2024-02-28T00:54:40;17.85;;;9.88;;
10517;SDS011;5307;42.548;22.968;2024-02-28T00:57:07;20.13;;;9.77;;
10517;SDS011;5307;42.548;22.968;2024-02-28T00:59:33;16.35;;;9.55;;
10517;SDS011;5307;42.548;22.968;2024-02-28T01:02:00;17.08;;;9.73;;
10517;SDS011;5307;42.548;22.968;2024-02-28T01:04:28;19.27;;;10.88;;
10517;SDS011;5307;42.548;22.968;2024-02-28T01:06:55;25.38;;;13.23;;
10517;SDS011;5307;42.548;22.968;2024-02-28T01:09:23;25.30;;;12.57;;
10517;SDS011;5307;42.548;22.968;2024-02-28T01:11:49;29.30;;;13.80;;
10517;SDS011;5307;42.548;22.968;2024-02-28T01:14:15;32.83;;;13.48;;
10517;SDS011;5307;42.548;22.968;2024-02-28T01:16:42;29.10;;;14.07;;
10517;SDS011;5307;42.548;22.968;2024-02-28T01:19:09;30.90;;;14.55;;
10517;SDS011;5307;42.548;22.968;2024-02-28T01:21:36;28.15;;;13.65;;
10517;SDS011;5307;42.548;22.968;2024-02-28T01:24:02;33.72;;;13.70;;
10517;SDS011;5307;42.548;22.968;2024-02-28T01:26:31;36.10;;;15.82;;
10517;SDS011;5307;42.548;22.968;2024-02-28T01:28:57;31.80;;;14.25;;
10517;SDS011;5307;42.548;22.968;2024-02-28T01:31:24;33.08;;;15.10;;
10517;SDS011;5307;42.548;22.968;2024-02-28T01:33:51;31.02;;;14.15;;
10517;SDS011;5307;42.548;22.968;2024-02-28T01:36:17;26.98;;;12.73;;
10517;SDS011;5307;42.548;22.968;2024-02-28T01:38:44;26.35;;;13.80;;
10517;SDS011;5307;42.548;22.968;2024-02-28T01:41:11;30.27;;;13.40;;
10517;SDS011;5307;42.548;22.968;2024-02-28T01:43:39;26.88;;;12.65;;
10517;SDS011;5307;42.548;22.968;2024-02-28T01:46:19;23.02;;;11.18;;
10517;SDS011;5307;42.548;22.968;2024-02-28T01:48:48;22.27;;;11.43;;
10517;SDS011;5307;42.548;22.968;2024-02-28T01:51:15;23.08;;;11.40;;
10517;SDS011;5307;42.548;22.968;2024-02-28T01:53:42;26.98;;;11.63;;
10517;SDS011;5307;42.548;22.968;2024-02-28T01:56:10;29.98;;;12.05;;
10517;SDS011;5307;42.548;22.968;2024-02-28T01:58:40;21.85;;;11.57;;
10517;SDS011;5307;42.548;22.968;2024-02-28T02:01:07;24.10;;;12.30;;
10517;SDS011;5307;42.548;22.968;2024-02-28T02:03:35;22.40;;;11.30;;
10517;SDS011;5307;42.548;22.968;2024-02-28T02:06:02;18.75;;;10.75;;
10517;SDS011;5307;42.548;22.968;2024-02-28T02:08:30;22.98;;;10.13;;
10517;SDS011;5307;42.548;22.968;2024-02-28T02:10:59;23.25;;;11.63;;
10517;SDS011;5307;42.548;22.968;2024-02-28T02:13:26;22.17;;;11.73;;
10517;SDS011;5307;42.548;22.968;2024-02-28T02:15:54;21.02;;;11.70;;
10517;SDS011;5307;42.548;22.968;2024-02-28T02:18:20;20.10;;;10.55;;
10517;SDS011;5307;42.548;22.968;2024-02-28T02:20:49;21.05;;;11.75;;
10517;SDS011;5307;42.548;22.968;2024-02-28T02:23:21;23.27;;;12.18;;
10517;SDS011;5307;42.548;22.968;2024-02-28T02:25:48;22.08;;;12.15;;
10517;SDS011;5307;42.548;22.968;2024-02-28T02:28:15;20.92;;;11.43;;
10517;SDS011;5307;42.548;22.968;2024-02-28T02:30:42;25.00;;;12.75;;
10517;SDS011;5307;42.548;22.968;2024-02-28T02:33:08;23.40;;;12.82;;
10517;SDS011;5307;42.548;22.968;2024-02-28T02:35:35;25.05;;;12.23;;
10517;SDS011;5307;42.548;22.968;2024-02-28T02:38:02;21.80;;;11.73;;
10517;SDS011;5307;42.548;22.968;2024-02-28T02:40:31;27.35;;;13.52;;
10517;SDS011;5307;42.548;22.968;2024-02-28T02:42:57;23.60;;;12.95;;
10517;SDS011;5307;42.548;22.968;2024-02-28T02:45:24;30.98;;;13.68;;
10517;SDS011;5307;42.548;22.968;2024-02-28T02:47:51;32.40;;;13.60;;
10517;SDS011;5307;42.548;22.968;2024-02-28T02:50:17;30.95;;;14.52;;
10517;SDS011;5307;42.548;22.968;2024-02-28T02:52:44;23.98;;;12.95;;
10517;SDS011;5307;42.548;22.968;2024-02-28T02:55:11;25.80;;;11.18;;
10517;SDS011;5307;42.548;22.968;2024-02-28T02:57:39;20.85;;;11.50;;
10517;SDS011;5307;42.548;22.968;2024-02-28T03:00:08;24.38;;;10.93;;
10517;SDS011;5307;42.548;22.968;2024-02-28T03:02:35;21.45;;;9.88;;
10517;SDS011;5307;42.548;22.968;2024-02-28T03:05:03;21.60;;;11.32;;
10517;SDS011;5307;42.548;22.968;2024-02-28T03:07:32;20.75;;;10.35;;
10517;SDS011;5307;42.548;22.968;2024-02-28T03:09:59;36.35;;;16.38;;
10517;SDS011;5307;42.548;22.968;2024-02-28T03:12:25;54.95;;;20.13;;
10517;SDS011;5307;42.548;22.968;2024-02-28T03:14:53;46.92;;;19.17;;
10517;SDS011;5307;42.548;22.968;2024-02-28T03:17:20;38.13;;;17.55;;
10517;SDS011;5307;42.548;22.968;2024-02-28T03:19:47;38.38;;;15.40;;
10517;SDS011;5307;42.548;22.968;2024-02-28T03:22:14;29.25;;;13.25;;
10517;SDS011;5307;42.548;22.968;2024-02-28T03:24:40;33.15;;;14.80;;
10517;SDS011;5307;42.548;22.968;2024-02-28T03:27:07;26.83;;;14.00;;
10517;SDS011;5307;42.548;22.968;2024-02-28T03:29:34;30.50;;;15.20;;
10517;SDS011;5307;42.548;22.968;2024-02-28T03:32:04;31.92;;;14.18;;
10517;SDS011;5307;42.548;22.968;2024-02-28T03:34:31;30.98;;;13.00;;
10517;SDS011;5307;42.548;22.968;2024-02-28T03:36:57;26.50;;;12.93;;
10517;SDS011;5307;42.548;22.968;2024-02-28T03:39:24;25.48;;;12.98;;
10517;SDS011;5307;42.548;22.968;2024-02-28T03:41:51;31.58;;;12.70;;
10517;SDS011;5307;42.548;22.968;2024-02-28T03:44:17;26.70;;;12.25;;
10517;SDS011;5307;42.548;22.968;2024-02-28T03:46:44;28.05;;;12.85;;
10517;SDS011;5307;42.548;22.968;2024-02-28T03:49:12;29.92;;;12.60;;
10517;SDS011;5307;42.548;22.968;2024-02-28T03:51:39;30.48;;;13.05;;
10517;SDS011;5307;42.548;22.968;2024-02-28T03:54:07;32.13;;;14.18;;
10517;SDS011;5307;42.548;22.968;2024-02-28T03:56:34;31.95;;;12.93;;
10517;SDS011;5307;42.548;22.968;2024-02-28T03:59:02;40.00;;;14.10;;
10517;SDS011;5307;42.548;22.968;2024-02-28T04:01:29;36.08;;;12.95;;
10517;SDS011;5307;42.548;22.968;2024-02-28T04:03:56;28.00;;;11.40;;
10517;SDS011;5307;42.548;22.968;2024-02-28T04:06:24;30.80;;;10.30;;
10517;SDS011;5307;42.548;22.968;2024-02-28T04:08:51;19.55;;;10.38;;
10517;SDS011;5307;42.548;22.968;2024-02-28T04:11:18;21.92;;;10.57;;
10517;SDS011;5307;42.548;22.968;2024-02-28T04:13:45;30.10;;;12.25;;
10517;SDS011;5307;42.548;22.968;2024-02-28T04:16:12;23.63;;;11.73;;
10517;SDS011;5307;42.548;22.968;2024-02-28T04:18:39;46.38;;;21.33;;
10517;SDS011;5307;42.548;22.968;2024-02-28T04:21:05;42.38;;;21.55;;
10517;SDS011;5307;42.548;22.968;2024-02-28T04:23:34;40.97;;;19.95;;
10517;SDS011;5307;42.548;22.968;2024-02-28T04:26:00;40.75;;;19.63;;
10517;SDS011;5307;42.548;22.968;2024-02-28T04:28:28;34.78;;;17.35;;
10517;SDS011;5307;42.548;22.968;2024-02-28T04:30:55;33.60;;;16.33;;
10517;SDS011;5307;42.548;22.968;2024-02-28T04:33:22;56.00;;;26.02;;
10517;SDS011;5307;42.548;22.968;2024-02-28T04:35:49;55.25;;;27.00;;
10517;SDS011;5307;42.548;22.968;2024-02-28T04:38:16;36.40;;;18.98;;
10517;SDS011;5307;42.548;22.968;2024-02-28T04:40:44;31.30;;;15.48;;
10517;SDS011;5307;42.548;22.968;2024-02-28T04:43:10;29.30;;;14.82;;
10517;SDS011;5307;42.548;22.968;2024-02-28T04:45:37;27.10;;;14.35;;
10517;SDS011;5307;42.548;22.968;2024-02-28T04:48:04;32.60;;;15.45;;
10517;SDS011;5307;42.548;22.968;2024-02-28T04:50:32;29.80;;;15.32;;
10517;SDS011;5307;42.548;22.968;2024-02-28T04:52:58;43.95;;;15.20;;
10517;SDS011;5307;42.548;22.968;2024-02-28T04:55:25;30.55;;;14.85;;
10517;SDS011;5307;42.548;22.968;2024-02-28T04:57:53;30.10;;;15.40;;
10517;SDS011;5307;42.548;22.968;2024-02-28T05:00:20;35.97;;;15.73;;
10517;SDS011;5307;42.548;22.968;2024-02-28T05:02:59;29.08;;;15.73;;
10517;SDS011;5307;42.548;22.968;2024-02-28T05:05:27;28.83;;;15.40;;
10517;SDS011;5307;42.548;22.968;2024-02-28T05:07:54;27.83;;;15.40;;
10517;SDS011;5307;42.548;22.968;2024-02-28T05:10:20;25.77;;;15.40;;
10517;SDS011;5307;42.548;22.968;2024-02-28T05:12:56;32.55;;;16.60;;
10517;SDS011;5307;42.548;22.968;2024-02-28T05:15:24;41.03;;;17.77;;
10517;SDS011;5307;42.548;22.968;2024-02-28T05:17:51;33.40;;;17.15;;
10517;SDS011;5307;42.548;22.968;2024-02-28T05:20:18;36.83;;;17.73;;
10517;SDS011;5307;42.548;22.968;2024-02-28T05:22:45;39.08;;;16.85;;
10517;SDS011;5307;42.548;22.968;2024-02-28T05:25:12;33.08;;;17.00;;
10517;SDS011;5307;42.548;22.968;2024-02-28T05:30:32;38.20;;;15.43;;
10517;SDS011;5307;42.548;22.968;2024-02-28T05:32:59;30.38;;;16.05;;
10517;SDS011;5307;42.548;22.968;2024-02-28T05:44:51;42.03;;;19.13;;
10517;SDS011;5307;42.548;22.968;2024-02-28T05:47:20;36.13;;;20.95;;
10517;SDS011;5307;42.548;22.968;2024-02-28T05:49:46;46.05;;;23.05;;
10517;SDS011;5307;42.548;22.968;2024-02-28T05:52:19;51.05;;;24.25;;
10517;SDS011;5307;42.548;22.968;2024-02-28T05:54:46;52.20;;;24.30;;
10517;SDS011;5307;42.548;22.968;2024-02-28T05:57:13;63.90;;;25.90;;
10517;SDS011;5307;42.548;22.968;2024-02-28T05:59:40;57.42;;;26.13;;
10517;SDS011;5307;42.548;22.968;2024-02-28T06:02:06;49.00;;;25.83;;
10517;SDS011;5307;42.548;22.968;2024-02-28T06:04:35;63.63;;;28.02;;
10517;SDS011;5307;42.548;22.968;2024-02-28T06:07:01;56.05;;;27.95;;
10517;SDS011;5307;42.548;22.968;2024-02-28T06:09:37;54.60;;;29.27;;
10517;SDS011;5307;42.548;22.968;2024-02-28T06:12:04;79.90;;;36.63;;
10517;SDS011;5307;42.548;22.968;2024-02-28T06:17:22;73.75;;;34.92;;
10517;SDS011;5307;42.548;22.968;2024-02-28T06:19:50;73.78;;;34.65;;
10517;SDS011;5307;42.548;22.968;2024-02-28T06:22:17;72.57;;;36.35;;
10517;SDS011;5307;42.548;22.968;2024-02-28T06:24:44;62.78;;;34.08;;
10517;SDS011;5307;42.548;22.968;2024-02-28T06:27:11;72.30;;;35.83;;
10517;SDS011;5307;42.548;22.968;2024-02-28T06:29:39;70.18;;;35.15;;
10517;SDS011;5307;42.548;22.968;2024-02-28T06:32:06;67.72;;;38.03;;
10517;SDS011;5307;42.548;22.968;2024-02-28T06:34:33;64.53;;;36.05;;
10517;SDS011;5307;42.548;22.968;2024-02-28T06:37:02;60.05;;;31.15;;
10517;SDS011;5307;42.548;22.968;2024-02-28T06:39:28;61.63;;;31.75;;
10517;SDS011;5307;42.548;22.968;2024-02-28T06:41:55;55.08;;;30.95;;
10517;SDS011;5307;42.548;22.968;2024-02-28T06:44:22;61.05;;;32.25;;
10517;SDS011;5307;42.548;22.968;2024-02-28T06:46:48;64.95;;;32.70;;
10517;SDS011;5307;42.548;22.968;2024-02-28T06:49:15;68.95;;;38.85;;
10517;SDS011;5307;42.548;22.968;2024-02-28T06:51:42;73.78;;;35.10;;
10517;SDS011;5307;42.548;22.968;2024-02-28T06:54:11;69.28;;;36.30;;
10517;SDS011;5307;42.548;22.968;2024-02-28T06:56:38;73.47;;;32.70;;
10517;SDS011;5307;42.548;22.968;2024-02-28T06:59:05;77.40;;;35.83;;
10517;SDS011;5307;42.548;22.968;2024-02-28T07:01:32;75.22;;;37.35;;
10517;SDS011;5307;42.548;22.968;2024-02-28T07:03:58;53.33;;;29.08;;
10517;SDS011;5307;42.548;22.968;2024-02-28T07:06:25;65.45;;;34.72;;
10517;SDS011;5307;42.548;22.968;2024-02-28T07:08:52;68.35;;;35.78;;
10517;SDS011;5307;42.548;22.968;2024-02-28T07:11:20;85.00;;;37.10;;
10517;SDS011;5307;42.548;22.968;2024-02-28T07:13:47;77.68;;;37.42;;
10517;SDS011;5307;42.548;22.968;2024-02-28T07:16:14;73.22;;;35.15;;
10517;SDS011;5307;42.548;22.968;2024-02-28T07:18:40;65.07;;;32.42;;
10517;SDS011;5307;42.548;22.968;2024-02-28T07:21:07;74.43;;;35.17;;
10517;SDS011;5307;42.548;22.968;2024-02-28T07:23:34;72.00;;;34.83;;
10517;SDS011;5307;42.548;22.968;2024-02-28T07:26:01;72.07;;;35.30;;
10517;SDS011;5307;42.548;22.968;2024-02-28T07:28:29;71.88;;;31.65;;
10517;SDS011;5307;42.548;22.968;2024-02-28T07:30:57;49.55;;;26.42;;
10517;SDS011;5307;42.548;22.968;2024-02-28T07:33:24;46.70;;;24.90;;
10517;SDS011;5307;42.548;22.968;2024-02-28T07:35:51;46.53;;;24.20;;
10517;SDS011;5307;42.548;22.968;2024-02-28T07:38:18;44.90;;;23.27;;
10517;SDS011;5307;42.548;22.968;2024-02-28T07:40:47;44.67;;;23.42;;
10517;SDS011;5307;42.548;22.968;2024-02-28T07:43:14;45.00;;;23.10;;
10517;SDS011;5307;42.548;22.968;2024-02-28T07:45:42;36.33;;;20.25;;
10517;SDS011;5307;42.548;22.968;2024-02-28T07:48:09;41.78;;;21.80;;
10517;SDS011;5307;42.548;22.968;2024-02-28T07:50:34;35.30;;;18.95;;
10517;SDS011;5307;42.548;22.968;2024-02-28T07:53:02;32.05;;;19.17;;
10517;SDS011;5307;42.548;22.968;2024-02-28T07:55:29;45.45;;;20.73;;
10517;SDS011;5307;42.548;22.968;2024-02-28T07:57:56;37.17;;;20.90;;
10517;SDS011;5307;42.548;22.968;2024-02-28T08:00:22;39.60;;;21.33;;
10517;SDS011;5307;42.548;22.968;2024-02-28T08:02:51;34.80;;;19.52;;
10517;SDS011;5307;42.548;22.968;2024-02-28T08:05:18;36.30;;;21.30;;
10517;SDS011;5307;42.548;22.968;2024-02-28T08:07:45;38.33;;;19.15;;
10517;SDS011;5307;42.548;22.968;2024-02-28T08:10:11;34.35;;;19.08;;
10517;SDS011;5307;42.548;22.968;2024-02-28T08:12:39;37.42;;;19.00;;
10517;SDS011;5307;42.548;22.968;2024-02-28T08:15:06;44.40;;;20.58;;
10517;SDS011;5307;42.548;22.968;2024-02-28T08:17:33;48.08;;;21.65;;
10517;SDS011;5307;42.548;22.968;2024-02-28T08:20:02;46.47;;;24.92;;
10517;SDS011;5307;42.548;22.968;2024-02-28T08:22:30;46.88;;;24.88;;
10517;SDS011;5307;42.548;22.968;2024-02-28T08:24:58;43.88;;;19.63;;
10517;SDS011;5307;42.548;22.968;2024-02-28T08:27:25;39.25;;;19.30;;
10517;SDS011;5307;42.548;22.968;2024-02-28T08:29:52;35.58;;;19.63;;
10517;SDS011;5307;42.548;22.968;2024-02-28T08:32:19;38.17;;;18.48;;
10517;SDS011;5307;42.548;22.968;2024-02-28T08:34:46;36.53;;;17.33;;
10517;SDS011;5307;42.548;22.968;2024-02-28T08:37:14;36.30;;;19.25;;
10517;SDS011;5307;42.548;22.968;2024-02-28T08:39:42;34.70;;;17.48;;
10517;SDS011;5307;42.548;22.968;2024-02-28T08:42:09;34.38;;;16.20;;
10517;SDS011;5307;42.548;22.968;2024-02-28T08:44:35;30.23;;;16.05;;
10517;SDS011;5307;42.548;22.968;2024-02-28T08:47:03;30.48;;;14.77;;
10517;SDS011;5307;42.548;22.968;2024-02-28T08:49:30;26.65;;;14.60;;
10517;SDS011;5307;42.548;22.968;2024-02-28T08:51:57;28.38;;;14.35;;
10517;SDS011;5307;42.548;22.968;2024-02-28T08:54:26;27.20;;;14.30;;
10517;SDS011;5307;42.548;22.968;2024-02-28T08:56:52;33.38;;;14.82;;
10517;SDS011;5307;42.548;22.968;2024-02-28T08:59:19;32.05;;;15.20;;
10517;SDS011;5307;42.548;22.968;2024-02-28T09:01:47;31.52;;;15.95;;
10517;SDS011;5307;42.548;22.968;2024-02-28T09:04:14;40.67;;;15.65;;
10517;SDS011;5307;42.548;22.968;2024-02-28T09:06:40;30.23;;;14.57;;
10517;SDS011;5307;42.548;22.968;2024-02-28T09:09:07;20.83;;;12.38;;
10517;SDS011;5307;42.548;22.968;2024-02-28T09:11:36;18.05;;;9.02;;
10517;SDS011;5307;42.548;22.968;2024-02-28T09:14:03;18.50;;;7.85;;
10517;SDS011;5307;42.548;22.968;2024-02-28T09:16:30;12.48;;;7.22;;
10517;SDS011;5307;42.548;22.968;2024-02-28T09:18:56;9.73;;;6.68;;
10517;SDS011;5307;42.548;22.968;2024-02-28T09:21:23;12.75;;;6.35;;
10517;SDS011;5307;42.548;22.968;2024-02-28T09:23:50;14.00;;;7.05;;
10517;SDS011;5307;42.548;22.968;2024-02-28T09:26:16;20.08;;;9.90;;
10517;SDS011;5307;42.548;22.968;2024-02-28T09:28:45;15.98;;;9.10;;
10517;SDS011;5307;42.548;22.968;2024-02-28T09:31:12;21.98;;;8.00;;
10517;SDS011;5307;42.548;22.968;2024-02-28T09:33:40;17.45;;;8.20;;
10517;SDS011;5307;42.548;22.968;2024-02-28T09:36:07;16.88;;;8.45;;
10517;SDS011;5307;42.548;22.968;2024-02-28T09:38:34;15.55;;;6.75;;
10517;SDS011;5307;42.548;22.968;2024-02-28T09:41:01;12.27;;;7.30;;
10517;SDS011;5307;42.548;22.968;2024-02-28T09:43:28;26.05;;;10.82;;
10517;SDS011;5307;42.548;22.968;2024-02-28T09:45:57;14.40;;;7.63;;
10517;SDS011;5307;42.548;22.968;2024-02-28T09:48:27;16.42;;;8.13;;
10517;SDS011;5307;42.548;22.968;2024-02-28T09:50:55;16.15;;;7.13;;
10517;SDS011;5307;42.548;22.968;2024-02-28T09:53:23;13.90;;;7.13;;
10517;SDS011;5307;42.548;22.968;2024-02-28T09:55:49;10.95;;;6.93;;
10517;SDS011;5307;42.548;22.968;2024-02-28T09:58:17;15.18;;;6.90;;
10517;SDS011;5307;42.548;22.968;2024-02-28T10:00:45;13.13;;;8.02;;
10517;SDS011;5307;42.548;22.968;2024-02-28T10:03:16;17.25;;;6.75;;
10517;SDS011;5307;42.548;22.968;2024-02-28T10:05:44;15.75;;;7.65;;
10517;SDS011;5307;42.548;22.968;2024-02-28T10:08:12;10.95;;;6.82;;
10517;SDS011;5307;42.548;22.968;2024-02-28T10:10:44;13.45;;;6.90;;
10517;SDS011;5307;42.548;22.968;2024-02-28T10:13:11;12.63;;;6.53;;
10517;SDS011;5307;42.548;22.968;2024-02-28T10:15:38;15.90;;;6.85;;
10517;SDS011;5307;42.548;22.968;2024-02-28T10:18:05;15.07;;;5.65;;
10517;SDS011;5307;42.548;22.968;2024-02-28T10:20:33;12.88;;;4.90;;
10517;SDS011;5307;42.548;22.968;2024-02-28T10:23:03;10.80;;;5.93;;
10517;SDS011;5307;42.548;22.968;2024-02-28T10:25:31;12.93;;;6.13;;
10517;SDS011;5307;42.548;22.968;2024-02-28T10:27:59;11.32;;;6.13;;
10517;SDS011;5307;42.548;22.968;2024-02-28T10:30:27;14.88;;;5.97;;
10517;SDS011;5307;42.548;22.968;2024-02-28T10:32:55;12.05;;;4.30;;
10517;SDS011;5307;42.548;22.968;2024-02-28T10:35:22;15.25;;;5.30;;
10517;SDS011;5307;42.548;22.968;2024-02-28T10:37:52;16.45;;;4.70;;
10517;SDS011;5307;42.548;22.968;2024-02-28T10:40:21;11.98;;;4.90;;
10517;SDS011;5307;42.548;22.968;2024-02-28T10:42:48;9.18;;;4.47;;
10517;SDS011;5307;42.548;22.968;2024-02-28T10:45:16;10.88;;;5.55;;
10517;SDS011;5307;42.548;22.968;2024-02-28T10:47:44;7.57;;;4.45;;
10517;SDS011;5307;42.548;22.968;2024-02-28T10:50:12;9.52;;;4.18;;
10517;SDS011;5307;42.548;22.968;2024-02-28T10:52:42;8.65;;;4.38;;
10517;SDS011;5307;42.548;22.968;2024-02-28T10:55:13;12.63;;;4.82;;
10517;SDS011;5307;42.548;22.968;2024-02-28T10:57:42;16.17;;;4.40;;
10517;SDS011;5307;42.548;22.968;2024-02-28T11:00:11;12.68;;;4.00;;
10517;SDS011;5307;42.548;22.968;2024-02-28T11:02:41;11.77;;;3.78;;
10517;SDS011;5307;42.548;22.968;2024-02-28T11:05:08;5.95;;;4.25;;
10517;SDS011;5307;42.548;22.968;2024-02-28T11:07:35;10.65;;;4.68;;
10517;SDS011;5307;42.548;22.968;2024-02-28T11:10:04;8.45;;;3.95;;
10517;SDS011;5307;42.548;22.968;2024-02-28T11:12:33;9.90;;;4.43;;
10517;SDS011;5307;42.548;22.968;2024-02-28T11:15:02;10.35;;;4.47;;
10517;SDS011;5307;42.548;22.968;2024-02-28T11:17:32;7.63;;;4.05;;
10517;SDS011;5307;42.548;22.968;2024-02-28T11:19:59;11.88;;;3.80;;
10517;SDS011;5307;42.548;22.968;2024-02-28T11:22:27;9.57;;;3.08;;
10517;SDS011;5307;42.548;22.968;2024-02-28T11:24:54;14.10;;;4.10;;
10517;SDS011;5307;42.548;22.968;2024-02-28T11:27:22;10.55;;;4.00;;
10517;SDS011;5307;42.548;22.968;2024-02-28T11:29:50;8.90;;;3.65;;
10517;SDS011;5307;42.548;22.968;2024-02-28T11:32:16;7.95;;;2.72;;
10517;SDS011;5307;42.548;22.968;2024-02-28T11:34:43;7.32;;;3.40;;
10517;SDS011;5307;42.548;22.968;2024-02-28T11:37:11;9.55;;;3.00;;
10517;SDS011;5307;42.548;22.968;2024-02-28T11:39:38;7.72;;;3.80;;
10517;SDS011;5307;42.548;22.968;2024-02-28T11:42:08;12.18;;;2.97;;
10517;SDS011;5307;42.548;22.968;2024-02-28T11:44:36;10.52;;;3.33;;
10517;SDS011;5307;42.548;22.968;2024-02-28T11:47:04;9.55;;;2.90;;
10517;SDS011;5307;42.548;22.968;2024-02-28T11:49:32;9.55;;;3.03;;
10517;SDS011;5307;42.548;22.968;2024-02-28T11:51:59;8.07;;;3.33;;
10517;SDS011;5307;42.548;22.968;2024-02-28T11:54:25;8.45;;;3.28;;
10517;SDS011;5307;42.548;22.968;2024-02-28T11:56:52;29.88;;;3.53;;
10517;SDS011;5307;42.548;22.968;2024-02-28T11:59:19;8.13;;;2.72;;
10517;SDS011;5307;42.548;22.968;2024-02-28T12:01:46;11.50;;;3.38;;
10517;SDS011;5307;42.548;22.968;2024-02-28T12:04:14;6.20;;;2.55;;
10517;SDS011;5307;42.548;22.968;2024-02-28T12:06:41;12.30;;;3.28;;
10517;SDS011;5307;42.548;22.968;2024-02-28T12:09:11;7.95;;;2.60;;
10517;SDS011;5307;42.548;22.968;2024-02-28T12:11:39;7.32;;;3.00;;
10517;SDS011;5307;42.548;22.968;2024-02-28T12:14:07;10.95;;;3.25;;
10517;SDS011;5307;42.548;22.968;2024-02-28T12:16:36;6.88;;;4.45;;
10517;SDS011;5307;42.548;22.968;2024-02-28T12:19:03;14.80;;;7.07;;
10517;SDS011;5307;42.548;22.968;2024-02-28T12:21:33;10.02;;;3.60;;
10517;SDS011;5307;42.548;22.968;2024-02-28T12:23:59;7.28;;;2.85;;
10517;SDS011;5307;42.548;22.968;2024-02-28T12:26:26;9.70;;;3.88;;
10517;SDS011;5307;42.548;22.968;2024-02-28T12:28:53;8.48;;;3.08;;
10517;SDS011;5307;42.548;22.968;2024-02-28T12:31:20;10.85;;;3.75;;
10517;SDS011;5307;42.548;22.968;2024-02-28T12:33:47;6.63;;;3.00;;
10517;SDS011;5307;42.548;22.968;2024-02-28T12:36:13;7.95;;;2.92;;
10517;SDS011;5307;42.548;22.968;2024-02-28T12:38:41;10.52;;;3.08;;
10517;SDS011;5307;42.548;22.968;2024-02-28T12:41:08;9.73;;;2.35;;
10517;SDS011;5307;42.548;22.968;2024-02-28T12:43:35;8.00;;;3.03;;
10517;SDS011;5307;42.548;22.968;2024-02-28T12:46:02;7.50;;;3.00;;
10517;SDS011;5307;42.548;22.968;2024-02-28T12:48:29;7.15;;;3.03;;
10517;SDS011;5307;42.548;22.968;2024-02-28T12:50:56;6.85;;;3.25;;
10517;SDS011;5307;42.548;22.968;2024-02-28T12:53:23;6.80;;;3.53;;
10517;SDS011;5307;42.548;22.968;2024-02-28T12:55:51;45.33;;;4.03;;
10517;SDS011;5307;42.548;22.968;2024-02-28T12:58:18;5.97;;;2.70;;
10517;SDS011;5307;42.548;22.968;2024-02-28T13:00:44;7.35;;;2.95;;
10517;SDS011;5307;42.548;22.968;2024-02-28T13:03:11;6.22;;;3.58;;
10517;SDS011;5307;42.548;22.968;2024-02-28T13:05:38;9.10;;;3.33;;
10517;SDS011;5307;42.548;22.968;2024-02-28T13:08:05;11.98;;;3.63;;
10517;SDS011;5307;42.548;22.968;2024-02-28T13:10:32;9.10;;;3.42;;
10517;SDS011;5307;42.548;22.968;2024-02-28T13:13:02;12.60;;;3.53;;
10517;SDS011;5307;42.548;22.968;2024-02-28T13:15:29;5.03;;;3.13;;
10517;SDS011;5307;42.548;22.968;2024-02-28T13:17:56;7.82;;;3.90;;
10517;SDS011;5307;42.548;22.968;2024-02-28T13:20:23;10.20;;;3.50;;
10517;SDS011;5307;42.548;22.968;2024-02-28T13:22:50;6.40;;;3.45;;
10517;SDS011;5307;42.548;22.968;2024-02-28T13:25:17;9.07;;;4.18;;
10517;SDS011;5307;42.548;22.968;2024-02-28T13:27:45;11.60;;;3.78;;
10517;SDS011;5307;42.548;22.968;2024-02-28T13:30:13;7.88;;;4.03;;
10517;SDS011;5307;42.548;22.968;2024-02-28T13:32:40;8.18;;;4.35;;
10517;SDS011;5307;42.548;22.968;2024-02-28T13:35:07;6.53;;;3.22;;
10517;SDS011;5307;42.548;22.968;2024-02-28T13:37:35;8.50;;;3.70;;
10517;SDS011;5307;42.548;22.968;2024-02-28T13:40:05;8.63;;;3.90;;
10517;SDS011;5307;42.548;22.968;2024-02-28T13:42:35;15.88;;;6.35;;
10517;SDS011;5307;42.548;22.968;2024-02-28T13:45:02;13.30;;;4.78;;
10517;SDS011;5307;42.548;22.968;2024-02-28T13:47:33;6.65;;;3.88;;
10517;SDS011;5307;42.548;22.968;2024-02-28T13:50:00;15.88;;;4.28;;
10517;SDS011;5307;42.548;22.968;2024-02-28T13:52:27;9.35;;;3.42;;
10517;SDS011;5307;42.548;22.968;2024-02-28T13:54:54;12.35;;;3.67;;
10517;SDS011;5307;42.548;22.968;2024-02-28T13:57:22;12.65;;;3.78;;
10517;SDS011;5307;42.548;22.968;2024-02-28T13:59:48;11.57;;;3.95;;
10517;SDS011;5307;42.548;22.968;2024-02-28T14:02:18;12.27;;;4.00;;
10517;SDS011;5307;42.548;22.968;2024-02-28T14:04:46;9.55;;;4.53;;
10517;SDS011;5307;42.548;22.968;2024-02-28T14:07:14;14.38;;;4.00;;
10517;SDS011;5307;42.548;22.968;2024-02-28T14:09:41;14.60;;;4.38;;
10517;SDS011;5307;42.548;22.968;2024-02-28T14:12:09;13.43;;;5.00;;
10517;SDS011;5307;42.548;22.968;2024-02-28T14:14:36;11.52;;;4.88;;
10517;SDS011;5307;42.548;22.968;2024-02-28T14:17:04;13.43;;;4.57;;
10517;SDS011;5307;42.548;22.968;2024-02-28T14:19:31;12.75;;;5.38;;
10517;SDS011;5307;42.548;22.968;2024-02-28T14:22:00;7.65;;;3.75;;
10517;SDS011;5307;42.548;22.968;2024-02-28T14:24:27;12.48;;;4.30;;
10517;SDS011;5307;42.548;22.968;2024-02-28T14:26:54;12.35;;;4.95;;
10517;SDS011;5307;42.548;22.968;2024-02-28T14:29:21;10.70;;;4.07;;
10517;SDS011;5307;42.548;22.968;2024-02-28T14:31:47;10.77;;;3.92;;
10517;SDS011;5307;42.548;22.968;2024-02-28T14:34:15;7.00;;;3.28;;
10517;SDS011;5307;42.548;22.968;2024-02-28T14:36:42;8.75;;;3.13;;
10517;SDS011;5307;42.548;22.968;2024-02-28T14:39:10;14.75;;;3.40;;
10517;SDS011;5307;42.548;22.968;2024-02-28T14:41:41;11.52;;;3.95;;
10517;SDS011;5307;42.548;22.968;2024-02-28T14:44:08;9.45;;;3.95;;